createdAt,value
2022-12-27T00:00:36.593Z,0.00
2022-12-27T00:02:35.167Z,0.00
2022-12-27T00:03:36.529Z,0.00
2022-12-27T00:04:36.867Z,0.00
2022-12-27T00:05:35.235Z,0.00
2022-12-27T00:07:35.231Z,0.00
2022-12-27T00:08:36.625Z,0.04
2022-12-27T00:09:35.991Z,0.00
2022-12-27T00:12:03.790Z,0.00
2022-12-27T00:12:35.905Z,0.00
2022-12-27T00:13:35.202Z,0.00
2022-12-27T00:14:36.560Z,0.00
2022-12-27T00:15:34.848Z,0.00
2022-12-27T00:16:35.232Z,0.00
2022-12-27T00:17:35.608Z,0.00
2022-12-27T00:18:35.863Z,0.00
2022-12-27T00:19:35.173Z,0.00
2022-12-27T00:20:35.565Z,0.04
2022-12-27T00:21:34.775Z,0.00
2022-12-27T00:22:36.071Z,0.00
2022-12-27T00:24:34.721Z,0.00
2022-12-27T00:25:35.060Z,0.00
2022-12-27T00:26:35.404Z,0.00
2022-12-27T00:28:36.102Z,0.00
2022-12-27T00:29:36.431Z,0.00
2022-12-27T00:30:35.647Z,0.00
2022-12-27T00:32:35.461Z,0.00
2022-12-27T00:33:34.768Z,0.00
2022-12-27T00:34:35.181Z,0.00
2022-12-27T00:35:35.415Z,0.00
2022-12-27T00:36:35.759Z,0.00
2022-12-27T00:37:35.030Z,0.00
2022-12-27T00:38:35.400Z,0.00
2022-12-27T00:39:35.623Z,0.00
2022-12-27T00:40:35.171Z,0.00
2022-12-27T00:41:35.361Z,0.00
2022-12-27T00:42:35.665Z,0.00
2022-12-27T00:43:35.926Z,0.00
2022-12-27T00:44:41.699Z,0.00
2022-12-27T00:45:34.705Z,0.00
2022-12-27T00:46:38.780Z,0.00
2022-12-27T00:47:36.357Z,0.00
2022-12-27T00:48:37.622Z,0.04
2022-12-27T00:49:35.890Z,0.00
2022-12-27T00:50:35.290Z,0.00
2022-12-27T00:51:34.594Z,0.00
2022-12-27T00:53:39.493Z,0.00
2022-12-27T00:53:45.646Z,0.00
2022-12-27T00:54:46.020Z,0.00
2022-12-27T00:55:45.309Z,0.00
2022-12-27T00:56:45.666Z,0.00
2022-12-27T00:57:46.005Z,0.00
2022-12-27T00:58:45.330Z,0.00
2022-12-27T00:59:46.611Z,0.00
2022-12-27T01:00:46.116Z,0.00
2022-12-27T01:01:45.408Z,0.00
2022-12-27T01:02:46.635Z,0.00
2022-12-27T01:03:51.153Z,0.00
2022-12-27T01:04:45.175Z,0.00
2022-12-27T01:05:47.514Z,0.00
2022-12-27T01:06:47.862Z,0.00
2022-12-27T01:07:48.182Z,0.00
2022-12-27T01:08:45.471Z,0.00
2022-12-27T01:09:46.122Z,0.00
2022-12-27T01:10:47.114Z,0.00
2022-12-27T01:11:46.517Z,0.00
2022-12-27T01:12:48.878Z,0.00
2022-12-27T01:13:46.110Z,0.00
2022-12-27T01:14:47.608Z,0.00
2022-12-27T01:15:47.632Z,0.00
2022-12-27T01:16:45.955Z,0.00
2022-12-27T01:17:46.175Z,0.00
2022-12-27T01:18:46.482Z,0.00
2022-12-27T01:19:45.877Z,0.00
2022-12-27T01:20:45.269Z,0.00
2022-12-27T01:21:47.496Z,0.00
2022-12-27T01:22:46.832Z,0.00
2022-12-27T01:23:45.062Z,0.00
2022-12-27T01:24:47.372Z,0.00
2022-12-27T01:25:45.819Z,0.00
2022-12-27T01:26:45.011Z,0.00
2022-12-27T01:27:47.345Z,0.00
2022-12-27T01:28:45.768Z,0.00
2022-12-27T01:29:45.030Z,0.00
2022-12-27T01:30:47.453Z,0.00
2022-12-27T01:31:45.740Z,0.00
2022-12-27T01:32:44.977Z,0.00
2022-12-27T01:33:46.262Z,0.00
2022-12-27T01:34:46.693Z,0.00
2022-12-27T01:35:46.002Z,0.00
2022-12-27T01:37:46.655Z,0.00
2022-12-27T01:38:45.938Z,0.00
2022-12-27T01:39:45.254Z,0.00
2022-12-27T01:41:00.161Z,0.00
2022-12-27T01:41:46.100Z,0.00
2022-12-27T01:42:47.257Z,0.00
2022-12-27T01:45:47.368Z,0.00
2022-12-27T01:46:46.543Z,0.00
2022-12-27T01:47:46.966Z,0.00
2022-12-27T01:48:45.285Z,0.00
2022-12-27T01:49:44.593Z,0.00
2022-12-27T01:50:45.920Z,0.00
2022-12-27T01:51:46.348Z,0.00
2022-12-27T01:52:44.617Z,0.00
2022-12-27T01:54:10.363Z,0.00
2022-12-27T01:54:46.363Z,0.00
2022-12-27T01:55:45.743Z,0.00
2022-12-27T01:56:45.029Z,0.00
2022-12-27T01:58:10.328Z,0.00
2022-12-27T01:58:44.642Z,0.00
2022-12-27T01:59:48.168Z,0.00
2022-12-27T02:00:46.322Z,0.00
2022-12-27T02:01:44.716Z,0.00
2022-12-27T02:02:46.077Z,0.00
2022-12-27T02:04:10.202Z,0.00
2022-12-27T02:04:44.504Z,0.00
2022-12-27T02:05:44.932Z,0.00
2022-12-27T02:06:45.165Z,0.00
2022-12-27T02:07:45.498Z,0.00
2022-12-27T02:08:44.799Z,0.00
2022-12-27T02:09:45.121Z,0.00
2022-12-27T02:11:11.001Z,0.00
2022-12-27T02:11:44.758Z,0.00
2022-12-27T02:12:47.154Z,0.00
2022-12-27T02:13:45.308Z,0.00
2022-12-27T02:14:44.742Z,0.00
2022-12-27T02:15:45.953Z,0.00
2022-12-27T02:16:44.403Z,0.00
2022-12-27T02:17:48.695Z,0.00
2022-12-27T02:18:44.473Z,0.00
2022-12-27T02:19:45.747Z,0.00
2022-12-27T02:21:48.583Z,0.00
2022-12-27T02:22:46.757Z,0.00
2022-12-27T02:23:45.003Z,0.04
2022-12-27T02:24:44.384Z,0.00
2022-12-27T02:25:45.676Z,0.00
2022-12-27T02:26:45.060Z,0.00
2022-12-27T02:27:44.377Z,0.00
2022-12-27T02:28:45.564Z,0.00
2022-12-27T02:29:44.944Z,0.00
2022-12-27T02:30:44.224Z,0.00
2022-12-27T02:31:47.652Z,0.00
2022-12-27T02:32:46.964Z,0.00
2022-12-27T02:34:44.008Z,0.00
2022-12-27T02:35:45.298Z,0.00
2022-12-27T02:36:51.973Z,0.00
2022-12-27T02:37:45.031Z,0.00
2022-12-27T02:38:44.377Z,0.00
2022-12-27T02:39:45.738Z,0.04
2022-12-27T02:40:59.627Z,0.00
2022-12-27T02:41:44.367Z,0.00
2022-12-27T02:42:43.889Z,0.00
2022-12-27T02:44:09.269Z,0.00
2022-12-27T02:44:44.587Z,0.00
2022-12-27T02:45:59.501Z,0.00
2022-12-27T02:46:44.228Z,0.00
2022-12-27T02:47:44.552Z,0.04
2022-12-27T02:49:45.302Z,0.00
2022-12-27T02:50:44.538Z,0.00
2022-12-27T02:51:43.911Z,0.00
2022-12-27T02:53:09.172Z,0.00
2022-12-27T02:53:45.567Z,0.00
2022-12-27T02:54:44.767Z,0.00
2022-12-27T02:55:58.772Z,0.00
2022-12-27T02:56:45.529Z,0.00
2022-12-27T02:57:43.781Z,0.00
2022-12-27T02:58:46.233Z,0.00
2022-12-27T02:59:45.448Z,0.00
2022-12-27T03:01:08.938Z,0.00
2022-12-27T03:01:45.281Z,0.00
2022-12-27T03:03:45.743Z,0.00
2022-12-27T03:04:45.108Z,0.00
2022-12-27T03:05:44.397Z,0.00
2022-12-27T03:07:44.058Z,0.00
2022-12-27T03:08:44.372Z,0.00
2022-12-27T03:10:09.679Z,0.00
2022-12-27T03:10:44.013Z,0.00
2022-12-27T03:11:45.333Z,0.00
2022-12-27T03:13:43.528Z,0.00
2022-12-27T03:14:44.832Z,0.00
2022-12-27T03:15:44.285Z,0.00
2022-12-27T03:17:44.871Z,0.00
2022-12-27T03:18:45.281Z,0.00
2022-12-27T03:19:45.527Z,0.00
2022-12-27T03:20:44.889Z,0.04
2022-12-27T03:21:45.224Z,0.00
2022-12-27T03:22:45.673Z,0.00
2022-12-27T03:23:45.892Z,0.00
2022-12-27T03:24:45.180Z,0.00
2022-12-27T03:25:45.500Z,0.00
2022-12-27T03:26:43.846Z,0.00
2022-12-27T03:27:44.209Z,0.00
2022-12-27T03:28:43.636Z,0.00
2022-12-27T03:29:43.831Z,0.00
2022-12-27T03:30:44.169Z,0.00
2022-12-27T03:31:45.442Z,0.00
2022-12-27T03:32:43.261Z,0.00
2022-12-27T03:33:44.463Z,0.00
2022-12-27T03:34:44.894Z,0.00
2022-12-27T03:35:44.248Z,0.00
2022-12-27T03:36:45.506Z,0.00
2022-12-27T03:37:44.861Z,0.00
2022-12-27T03:38:44.180Z,0.00
2022-12-27T03:39:46.521Z,0.00
2022-12-27T03:40:43.801Z,0.00
2022-12-27T03:41:43.103Z,0.00
2022-12-27T03:43:44.714Z,0.00
2022-12-27T03:44:45.086Z,0.00
2022-12-27T03:45:43.375Z,0.00
2022-12-27T03:46:50.186Z,0.00
2022-12-27T03:47:44.279Z,0.00
2022-12-27T03:48:43.596Z,0.00
2022-12-27T03:49:45.280Z,0.00
2022-12-27T03:50:44.262Z,0.00
2022-12-27T03:51:43.644Z,0.00
2022-12-27T03:53:43.167Z,0.00
2022-12-27T03:54:58.113Z,0.00
2022-12-27T03:56:43.153Z,0.00
2022-12-27T03:57:58.996Z,0.00
2022-12-27T03:58:44.881Z,0.00
2022-12-27T03:59:43.142Z,0.00
2022-12-27T04:00:58.117Z,0.00
2022-12-27T04:01:43.898Z,0.00
2022-12-27T04:02:43.330Z,0.00
2022-12-27T04:03:58.028Z,0.04
2022-12-27T04:04:45.820Z,0.00
2022-12-27T04:05:43.125Z,0.00
2022-12-27T04:07:11.584Z,0.00
2022-12-27T04:07:42.756Z,0.01
2022-12-27T04:09:09.092Z,0.00
2022-12-27T04:09:43.427Z,0.00
2022-12-27T04:11:08.754Z,0.00
2022-12-27T04:11:43.112Z,0.00
2022-12-27T04:12:43.564Z,0.00
2022-12-27T04:13:42.736Z,0.00
2022-12-27T04:15:18.500Z,0.00
2022-12-27T04:15:43.505Z,0.00
2022-12-27T04:16:42.761Z,0.00
2022-12-27T04:17:57.981Z,0.00
2022-12-27T04:18:44.559Z,0.00
2022-12-27T04:19:42.849Z,0.00
2022-12-27T04:20:43.218Z,0.00
2022-12-27T04:21:42.545Z,0.00
2022-12-27T04:22:43.846Z,0.00
2022-12-27T04:23:43.294Z,0.00
2022-12-27T04:24:42.554Z,0.00
2022-12-27T04:25:43.873Z,0.00
2022-12-27T04:26:45.384Z,0.00
2022-12-27T04:27:42.623Z,0.00
2022-12-27T04:28:46.277Z,0.00
2022-12-27T04:29:44.413Z,0.00
2022-12-27T04:31:43.076Z,0.00
2022-12-27T04:32:42.372Z,0.00
2022-12-27T04:33:42.732Z,0.00
2022-12-27T04:34:43.251Z,0.00
2022-12-27T04:35:42.422Z,0.00
2022-12-27T04:36:42.869Z,0.00
2022-12-27T04:37:43.175Z,0.00
2022-12-27T04:38:42.471Z,0.00
2022-12-27T04:39:42.806Z,0.00
2022-12-27T04:40:43.237Z,0.00
2022-12-27T04:41:42.488Z,0.00
2022-12-27T04:42:42.845Z,0.00
2022-12-27T04:43:43.211Z,0.00
2022-12-27T04:44:43.525Z,0.00
2022-12-27T04:45:43.911Z,0.00
2022-12-27T04:46:43.207Z,0.00
2022-12-27T04:47:43.542Z,0.00
2022-12-27T04:48:44.931Z,0.00
2022-12-27T04:49:43.191Z,0.00
2022-12-27T04:50:43.530Z,0.00
2022-12-27T04:51:43.961Z,0.00
2022-12-27T04:52:46.191Z,0.00
2022-12-27T04:53:44.563Z,0.04
2022-12-27T04:54:44.922Z,0.00
2022-12-27T04:55:45.246Z,0.00
2022-12-27T04:56:44.571Z,0.00
2022-12-27T04:57:43.870Z,0.00
2022-12-27T04:58:42.114Z,0.00
2022-12-27T04:59:43.516Z,0.00
2022-12-27T05:00:49.057Z,0.00
2022-12-27T05:01:42.277Z,0.00
2022-12-27T05:03:42.898Z,0.00
2022-12-27T05:04:44.180Z,0.00
2022-12-27T05:05:42.464Z,0.00
2022-12-27T05:06:44.901Z,0.00
2022-12-27T05:07:43.165Z,0.00
2022-12-27T05:08:44.601Z,0.00
2022-12-27T05:09:42.794Z,0.00
2022-12-27T05:10:43.197Z,0.00
2022-12-27T05:11:43.485Z,0.00
2022-12-27T05:12:42.780Z,0.00
2022-12-27T05:13:43.052Z,0.00
2022-12-27T05:14:43.553Z,0.00
2022-12-27T05:15:41.791Z,0.00
2022-12-27T05:16:42.095Z,0.00
2022-12-27T05:17:43.522Z,0.02
2022-12-27T05:18:42.836Z,0.00
2022-12-27T05:19:42.131Z,0.00
2022-12-27T05:20:43.721Z,0.00
2022-12-27T05:21:41.786Z,0.04
2022-12-27T05:22:43.111Z,0.00
2022-12-27T05:23:42.557Z,0.00
2022-12-27T05:24:42.846Z,0.00
2022-12-27T05:25:42.140Z,0.00
2022-12-27T05:26:41.824Z,0.00
2022-12-27T05:27:43.044Z,0.00
2022-12-27T05:28:42.446Z,0.00
2022-12-27T05:29:41.756Z,0.00
2022-12-27T05:30:43.150Z,0.04
2022-12-27T05:31:45.407Z,0.00
2022-12-27T05:32:41.601Z,0.00
2022-12-27T05:33:43.007Z,0.00
2022-12-27T05:34:43.385Z,0.00
2022-12-27T05:35:44.812Z,0.00
2022-12-27T05:36:42.041Z,0.00
2022-12-27T05:37:42.445Z,0.00
2022-12-27T05:38:43.660Z,0.00
2022-12-27T05:39:41.569Z,0.00
2022-12-27T05:40:41.915Z,0.00
2022-12-27T05:41:42.211Z,0.00
2022-12-27T05:42:41.538Z,0.00
2022-12-27T05:43:41.937Z,0.00
2022-12-27T05:44:42.166Z,0.00
2022-12-27T05:45:41.464Z,0.00
2022-12-27T05:46:41.826Z,0.00
2022-12-27T05:47:43.065Z,0.00
2022-12-27T05:48:42.590Z,0.04
2022-12-27T05:49:41.768Z,0.00
2022-12-27T05:50:43.156Z,0.00
2022-12-27T05:51:42.430Z,0.02
2022-12-27T05:52:42.756Z,0.00
2022-12-27T05:53:42.036Z,0.00
2022-12-27T05:54:42.889Z,0.00
2022-12-27T05:55:44.791Z,0.00
2022-12-27T05:56:41.976Z,0.00
2022-12-27T05:57:44.412Z,0.00
2022-12-27T05:58:44.759Z,0.00
2022-12-27T05:59:41.974Z,0.00
2022-12-27T06:01:16.830Z,0.00
2022-12-27T06:01:41.512Z,0.00
2022-12-27T06:02:41.853Z,0.00
2022-12-27T06:03:43.103Z,0.00
2022-12-27T06:04:42.460Z,0.00
2022-12-27T06:05:41.740Z,0.00
2022-12-27T06:06:43.212Z,0.00
2022-12-27T06:07:56.030Z,0.00
2022-12-27T06:08:42.890Z,0.00
2022-12-27T06:09:56.750Z,0.00
2022-12-27T06:10:42.531Z,0.00
2022-12-27T06:11:41.851Z,0.00
2022-12-27T06:12:44.350Z,0.00
2022-12-27T06:13:41.515Z,0.00
2022-12-27T06:14:56.455Z,0.00
2022-12-27T06:15:43.297Z,0.00
2022-12-27T06:16:41.629Z,0.00
2022-12-27T06:17:41.917Z,0.00
2022-12-27T06:19:16.706Z,0.00
2022-12-27T06:19:41.616Z,0.00
2022-12-27T06:20:40.961Z,0.00
2022-12-27T06:21:43.351Z,0.00
2022-12-27T06:22:41.661Z,0.00
2022-12-27T06:24:09.103Z,0.02
2022-12-27T06:24:41.516Z,0.00
2022-12-27T06:25:41.650Z,0.00
2022-12-27T06:26:40.946Z,0.00
2022-12-27T06:27:42.355Z,0.00
2022-12-27T06:28:42.711Z,0.02
2022-12-27T06:29:40.971Z,0.00
2022-12-27T06:30:41.415Z,0.02
2022-12-27T06:31:42.675Z,0.00
2022-12-27T06:32:41.019Z,0.01
2022-12-27T06:33:41.356Z,0.01
2022-12-27T06:34:43.789Z,0.01
2022-12-27T06:35:41.016Z,0.01
2022-12-27T06:37:09.546Z,0.02
2022-12-27T06:37:40.702Z,0.01
2022-12-27T06:38:42.092Z,0.02
2022-12-27T06:39:41.395Z,0.01
2022-12-27T06:40:41.750Z,0.02
2022-12-27T06:41:42.112Z,0.02
2022-12-27T06:42:41.483Z,0.02
2022-12-27T06:43:41.713Z,0.03
2022-12-27T06:44:41.097Z,0.02
2022-12-27T06:45:42.477Z,0.03
2022-12-27T06:46:40.769Z,0.03
2022-12-27T06:47:42.203Z,0.04
2022-12-27T06:48:42.522Z,0.05
2022-12-27T06:49:41.844Z,0.12
2022-12-27T06:50:42.194Z,0.08
2022-12-27T06:51:42.532Z,0.09
2022-12-27T06:52:44.036Z,0.09
2022-12-27T06:53:43.278Z,0.12
2022-12-27T06:54:41.548Z,0.13
2022-12-27T06:55:40.862Z,0.15
2022-12-27T06:56:43.189Z,0.18
2022-12-27T06:57:41.547Z,0.23
2022-12-27T06:58:41.155Z,0.25
2022-12-27T06:59:43.336Z,0.28
2022-12-27T07:00:42.617Z,0.36
2022-12-27T07:01:40.992Z,0.42
2022-12-27T07:02:41.327Z,0.51
2022-12-27T07:04:06.615Z,0.61
2022-12-27T07:04:41.049Z,0.67
2022-12-27T07:05:41.287Z,0.79
2022-12-27T07:06:41.684Z,0.92
2022-12-27T07:07:41.000Z,1.07
2022-12-27T07:08:41.350Z,1.24
2022-12-27T07:09:41.853Z,1.41
2022-12-27T07:10:42.090Z,1.61
2022-12-27T07:11:41.427Z,1.84
2022-12-27T07:13:11.957Z,2.24
2022-12-27T07:13:41.085Z,2.36
2022-12-27T07:14:40.399Z,2.70
2022-12-27T07:16:30.846Z,3.54
2022-12-27T07:16:41.180Z,3.63
2022-12-27T07:17:40.450Z,4.07
2022-12-27T07:18:55.401Z,4.64
2022-12-27T07:19:42.262Z,4.97
2022-12-27T07:20:40.522Z,5.39
2022-12-27T07:21:41.562Z,5.85
2022-12-27T07:22:40.214Z,6.57
2022-12-27T07:23:55.171Z,7.77
2022-12-27T07:24:41.976Z,8.43
2022-12-27T07:25:40.247Z,9.10
2022-12-27T07:26:42.948Z,9.94
2022-12-27T07:27:40.907Z,10.82
2022-12-27T07:28:40.196Z,11.69
2022-12-27T07:29:55.106Z,12.72
2022-12-27T07:30:41.962Z,13.31
2022-12-27T07:31:40.170Z,14.52
2022-12-27T07:32:41.584Z,17.12
2022-12-27T07:33:40.835Z,19.47
2022-12-27T07:35:06.142Z,22.08
2022-12-27T07:35:44.925Z,23.72
2022-12-27T07:36:40.803Z,27.91
2022-12-27T07:37:40.122Z,31.57
2022-12-27T07:39:07.380Z,38.12
2022-12-27T07:39:40.808Z,41.57
2022-12-27T07:40:41.207Z,48.66
2022-12-27T07:41:40.475Z,55.95
2022-12-27T07:42:55.402Z,65.00
2022-12-27T07:43:42.240Z,70.74
2022-12-27T07:44:40.592Z,76.80
2022-12-27T07:45:41.845Z,83.58
2022-12-27T07:46:41.226Z,90.70
2022-12-27T07:47:40.559Z,97.42
2022-12-27T07:48:41.838Z,104.64
2022-12-27T07:49:43.328Z,113.05
2022-12-27T07:50:40.576Z,120.78
2022-12-27T07:51:42.998Z,129.76
2022-12-27T07:52:43.407Z,138.29
2022-12-27T07:53:40.611Z,146.51
2022-12-27T07:54:43.972Z,155.57
2022-12-27T07:55:43.636Z,164.62
2022-12-27T07:56:40.602Z,173.23
2022-12-27T07:57:43.092Z,181.33
2022-12-27T07:58:40.265Z,186.47
2022-12-27T07:59:40.677Z,191.57
2022-12-27T08:00:39.948Z,196.52
2022-12-27T08:01:41.343Z,206.66
2022-12-27T08:02:39.647Z,221.17
2022-12-27T08:03:41.184Z,236.66
2022-12-27T08:04:41.387Z,247.56
2022-12-27T08:05:40.696Z,256.07
2022-12-27T08:06:42.182Z,264.39
2022-12-27T08:07:40.367Z,274.11
2022-12-27T08:08:39.671Z,279.69
2022-12-27T08:09:41.059Z,285.38
2022-12-27T08:10:40.383Z,294.16
2022-12-27T08:11:41.816Z,270.49
2022-12-27T08:12:40.112Z,234.34
2022-12-27T08:13:40.386Z,263.47
2022-12-27T08:14:42.829Z,295.80
2022-12-27T08:15:41.176Z,238.70
2022-12-27T08:16:40.408Z,220.39
2022-12-27T08:17:54.361Z,218.98
2022-12-27T08:18:41.088Z,223.88
2022-12-27T08:19:39.355Z,224.66
2022-12-27T08:20:41.800Z,223.80
2022-12-27T08:21:47.321Z,230.27
2022-12-27T08:22:40.411Z,235.16
2022-12-27T08:23:39.845Z,245.15
2022-12-27T08:24:41.112Z,256.53
2022-12-27T08:25:46.780Z,376.00
2022-12-27T08:26:40.705Z,405.72
2022-12-27T08:27:54.629Z,416.10
2022-12-27T08:28:41.515Z,425.46
2022-12-27T08:29:39.718Z,455.90
2022-12-27T08:30:54.712Z,482.74
2022-12-27T08:31:41.466Z,492.26
2022-12-27T08:32:39.747Z,505.03
2022-12-27T08:33:58.411Z,513.46
2022-12-27T08:34:41.487Z,516.12
2022-12-27T08:35:52.649Z,520.62
2022-12-27T08:36:56.919Z,523.84
2022-12-27T08:37:40.426Z,500.44
2022-12-27T08:38:40.831Z,481.21
2022-12-27T08:39:39.157Z,508.04
2022-12-27T08:40:53.877Z,319.67
2022-12-27T08:41:41.695Z,321.69
2022-12-27T08:42:39.966Z,330.98
2022-12-27T08:43:41.356Z,345.84
2022-12-27T08:44:39.727Z,326.27
2022-12-27T08:45:42.059Z,290.99
2022-12-27T08:46:39.468Z,275.59
2022-12-27T08:47:39.586Z,372.55
2022-12-27T08:48:39.984Z,421.89
2022-12-27T08:49:39.218Z,414.27
2022-12-27T08:50:39.633Z,405.19
2022-12-27T08:51:41.712Z,392.34
2022-12-27T08:52:39.151Z,290.78
2022-12-27T08:53:40.610Z,298.69
2022-12-27T08:54:40.882Z,312.93
2022-12-27T08:55:39.197Z,323.28
2022-12-27T08:56:54.236Z,340.07
2022-12-27T08:57:40.894Z,384.87
2022-12-27T08:58:39.142Z,388.28
2022-12-27T08:59:39.508Z,407.67
2022-12-27T09:00:41.922Z,414.94
2022-12-27T09:01:39.269Z,351.65
2022-12-27T09:02:54.640Z,381.16
2022-12-27T09:03:39.836Z,407.24
2022-12-27T09:04:39.132Z,424.06
2022-12-27T09:05:41.908Z,434.03
2022-12-27T09:06:38.756Z,451.89
2022-12-27T09:07:39.097Z,463.24
2022-12-27T09:08:39.555Z,470.33
2022-12-27T09:09:38.704Z,534.30
2022-12-27T09:10:39.046Z,666.61
2022-12-27T09:11:39.375Z,599.32
2022-12-27T09:12:39.701Z,525.91
2022-12-27T09:13:38.997Z,496.54
2022-12-27T09:14:39.427Z,500.12
2022-12-27T09:15:39.707Z,502.81
2022-12-27T09:16:38.969Z,509.99
2022-12-27T09:17:39.285Z,542.09
2022-12-27T09:18:39.628Z,590.60
2022-12-27T09:19:39.004Z,593.74
2022-12-27T09:20:39.316Z,511.08
2022-12-27T09:21:39.569Z,566.96
2022-12-27T09:22:38.872Z,566.06
2022-12-27T09:23:39.169Z,562.20
2022-12-27T09:24:39.527Z,573.85
2022-12-27T09:25:38.834Z,595.83
2022-12-27T09:26:39.147Z,613.55
2022-12-27T09:27:39.458Z,620.88
2022-12-27T09:28:38.717Z,624.29
2022-12-27T09:29:43.002Z,622.77
2022-12-27T09:30:40.453Z,618.42
2022-12-27T09:31:38.645Z,617.56
2022-12-27T09:32:39.336Z,608.97
2022-12-27T09:33:39.275Z,612.43
2022-12-27T09:34:40.591Z,605.31
2022-12-27T09:35:38.885Z,598.32
2022-12-27T09:36:39.175Z,593.60
2022-12-27T09:37:38.454Z,587.40
2022-12-27T09:38:39.260Z,578.01
2022-12-27T09:39:39.220Z,569.53
2022-12-27T09:40:39.512Z,562.03
2022-12-27T09:42:44.399Z,551.10
2022-12-27T09:42:58.989Z,543.48
2022-12-27T09:43:40.457Z,527.47
2022-12-27T09:44:38.710Z,510.60
2022-12-27T09:45:38.942Z,497.78
2022-12-27T09:46:39.395Z,488.21
2022-12-27T09:47:38.603Z,474.95
2022-12-27T09:48:38.891Z,462.99
2022-12-27T09:49:39.300Z,464.67
2022-12-27T09:50:38.488Z,465.04
2022-12-27T09:51:38.842Z,466.41
2022-12-27T09:52:39.177Z,473.60
2022-12-27T09:53:38.385Z,474.72
2022-12-27T09:54:38.731Z,475.78
2022-12-27T09:55:39.125Z,477.26
2022-12-27T09:57:19.772Z,480.03
2022-12-27T09:57:39.647Z,482.00
2022-12-27T09:58:38.960Z,485.41
2022-12-27T09:59:39.225Z,489.43
2022-12-27T10:00:42.590Z,492.17
2022-12-27T10:01:40.798Z,494.43
2022-12-27T10:02:38.247Z,496.20
2022-12-27T10:03:38.482Z,509.11
2022-12-27T10:05:17.703Z,532.28
2022-12-27T10:05:40.143Z,547.13
2022-12-27T10:06:38.342Z,575.39
2022-12-27T10:07:38.810Z,539.52
2022-12-27T10:08:38.918Z,442.11
2022-12-27T10:09:38.193Z,516.80
2022-12-27T10:10:39.467Z,548.41
2022-12-27T10:11:38.844Z,557.49
2022-12-27T10:12:38.111Z,577.49
2022-12-27T10:13:38.490Z,605.12
2022-12-27T10:14:38.712Z,636.77
2022-12-27T10:15:37.981Z,656.58
2022-12-27T10:16:38.291Z,758.93
2022-12-27T10:17:39.573Z,627.99
2022-12-27T10:18:38.776Z,725.13
2022-12-27T10:19:38.247Z,676.02
2022-12-27T10:20:39.409Z,647.95
2022-12-27T10:21:38.776Z,631.28
2022-12-27T10:22:39.038Z,607.02
2022-12-27T10:23:38.387Z,588.34
2022-12-27T10:24:38.722Z,581.58
2022-12-27T10:25:37.872Z,575.57
2022-12-27T10:26:38.189Z,579.33
2022-12-27T10:27:38.499Z,579.18
2022-12-27T10:28:37.778Z,580.28
2022-12-27T10:29:38.087Z,582.94
2022-12-27T10:30:38.401Z,583.03
2022-12-27T10:31:38.727Z,582.07
2022-12-27T10:32:38.200Z,583.11
2022-12-27T10:33:43.475Z,578.00
2022-12-27T10:34:38.562Z,578.56
2022-12-27T10:35:46.246Z,582.47
2022-12-27T10:36:38.135Z,583.68
2022-12-27T10:37:43.622Z,583.20
2022-12-27T10:38:37.804Z,589.76
2022-12-27T10:39:40.097Z,603.91
2022-12-27T10:40:38.372Z,603.71
2022-12-27T10:41:38.690Z,607.12
2022-12-27T10:42:40.036Z,605.03
2022-12-27T10:43:38.245Z,608.74
2022-12-27T10:44:38.548Z,616.04
2022-12-27T10:45:37.831Z,617.89
2022-12-27T10:46:38.147Z,620.57
2022-12-27T10:47:38.541Z,603.03
2022-12-27T10:49:02.661Z,607.49
2022-12-27T10:49:39.977Z,630.50
2022-12-27T10:50:38.336Z,635.48
2022-12-27T10:51:37.608Z,612.35
2022-12-27T10:52:37.936Z,616.25
2022-12-27T10:53:38.581Z,611.12
2022-12-27T10:54:37.527Z,615.98
2022-12-27T10:55:37.825Z,615.77
2022-12-27T10:56:39.061Z,613.30
2022-12-27T10:57:37.362Z,618.35
2022-12-27T10:58:37.673Z,623.62
2022-12-27T10:59:37.965Z,627.79
2022-12-27T11:00:38.262Z,638.24
2022-12-27T11:01:38.650Z,642.88
2022-12-27T11:02:37.954Z,658.20
2022-12-27T11:03:38.072Z,660.09
2022-12-27T11:04:38.281Z,647.09
2022-12-27T11:05:38.676Z,686.64
2022-12-27T11:06:38.893Z,689.01
2022-12-27T11:07:37.209Z,693.38
2022-12-27T11:08:38.581Z,701.91
2022-12-27T11:09:37.778Z,617.83
2022-12-27T11:10:38.086Z,444.86
2022-12-27T11:11:37.357Z,433.19
2022-12-27T11:12:37.669Z,435.11
2022-12-27T11:13:38.023Z,433.73
2022-12-27T11:14:37.291Z,456.36
2022-12-27T11:15:37.565Z,452.93
2022-12-27T11:16:38.031Z,442.55
2022-12-27T11:17:37.221Z,477.07
2022-12-27T11:18:37.485Z,494.91
2022-12-27T11:19:37.766Z,515.63
2022-12-27T11:20:37.106Z,529.46
2022-12-27T11:21:37.389Z,533.88
2022-12-27T11:22:37.851Z,544.17
2022-12-27T11:23:38.068Z,547.77
2022-12-27T11:24:37.274Z,570.25
2022-12-27T11:25:37.548Z,605.26
2022-12-27T11:26:38.871Z,582.72
2022-12-27T11:27:37.116Z,663.13
2022-12-27T11:28:38.771Z,681.59
2022-12-27T11:29:37.738Z,738.11
2022-12-27T11:30:36.976Z,850.31
2022-12-27T11:32:14.725Z,821.66
2022-12-27T11:32:37.536Z,822.64
2022-12-27T11:33:36.825Z,832.16
2022-12-27T11:34:37.187Z,832.27
2022-12-27T11:35:37.449Z,822.40
2022-12-27T11:36:38.649Z,802.48
2022-12-27T11:37:37.987Z,770.55
2022-12-27T11:38:37.226Z,748.52
2022-12-27T11:39:37.633Z,742.85
2022-12-27T11:40:37.812Z,734.26
2022-12-27T11:41:37.032Z,737.52
2022-12-27T11:42:37.337Z,727.49
2022-12-27T11:43:37.627Z,719.99
2022-12-27T11:44:42.121Z,716.69
2022-12-27T11:45:39.794Z,714.12
2022-12-27T11:46:37.453Z,693.38
2022-12-27T11:47:37.616Z,684.08
2022-12-27T11:48:36.992Z,680.14
2022-12-27T11:49:44.552Z,679.01
2022-12-27T11:50:46.668Z,673.87
2022-12-27T11:51:36.746Z,658.26
2022-12-27T11:52:47.196Z,635.06
2022-12-27T11:53:37.354Z,622.14
2022-12-27T11:54:46.808Z,628.12
2022-12-27T11:55:36.864Z,599.41
2022-12-27T11:56:43.271Z,444.03
2022-12-27T11:57:37.460Z,372.30
2022-12-27T11:58:36.702Z,424.15
2022-12-27T11:59:37.966Z,477.33
2022-12-27T12:00:37.320Z,541.37
2022-12-27T12:01:36.539Z,401.42
2022-12-27T12:02:37.821Z,337.83
2022-12-27T12:03:37.146Z,356.72
2022-12-27T12:04:37.703Z,425.15
2022-12-27T12:05:37.012Z,438.68
2022-12-27T12:07:16.805Z,455.55
2022-12-27T12:07:36.498Z,470.14
2022-12-27T12:08:36.772Z,471.24
2022-12-27T12:09:37.043Z,387.65
2022-12-27T12:10:38.301Z,473.71
2022-12-27T12:11:36.571Z,486.15
2022-12-27T12:12:36.896Z,486.10
2022-12-27T12:13:37.107Z,486.41
2022-12-27T12:14:36.344Z,502.07
2022-12-27T12:15:37.552Z,510.56
2022-12-27T12:16:37.021Z,515.20
2022-12-27T12:17:37.226Z,501.48
2022-12-27T12:18:36.442Z,488.35
2022-12-27T12:19:36.752Z,585.52
2022-12-27T12:20:37.105Z,561.99
2022-12-27T12:21:37.345Z,543.39
2022-12-27T12:22:36.621Z,484.61
2022-12-27T12:23:36.877Z,493.46
2022-12-27T12:24:36.212Z,459.66
2022-12-27T12:25:37.387Z,426.98
2022-12-27T12:26:36.734Z,438.62
2022-12-27T12:27:38.028Z,466.44
2022-12-27T12:28:57.592Z,449.17
2022-12-27T12:29:38.532Z,490.16
2022-12-27T12:30:36.884Z,450.95
2022-12-27T12:31:36.166Z,449.69
2022-12-27T12:32:36.403Z,446.83
2022-12-27T12:33:37.077Z,436.64
2022-12-27T12:34:36.983Z,420.21
2022-12-27T12:35:37.197Z,444.19
2022-12-27T12:36:36.516Z,466.53
2022-12-27T12:37:37.739Z,421.61
2022-12-27T12:38:36.018Z,418.37
2022-12-27T12:39:36.404Z,411.59
2022-12-27T12:40:36.603Z,430.95
2022-12-27T12:41:36.842Z,425.99
2022-12-27T12:42:36.075Z,438.66
2022-12-27T12:43:36.795Z,449.68
2022-12-27T12:44:41.556Z,446.24
2022-12-27T12:45:35.949Z,465.50
2022-12-27T12:46:36.188Z,443.81
2022-12-27T12:47:36.451Z,481.73
2022-12-27T12:48:37.691Z,520.66
2022-12-27T12:49:36.053Z,526.90
2022-12-27T12:50:36.332Z,498.78
2022-12-27T12:52:13.052Z,498.89
2022-12-27T12:52:35.908Z,496.01
2022-12-27T12:53:36.220Z,504.79
2022-12-27T12:54:37.467Z,504.35
2022-12-27T12:55:38.774Z,520.29
2022-12-27T12:56:36.212Z,543.13
2022-12-27T12:57:37.361Z,538.76
2022-12-27T12:58:37.631Z,534.16
2022-12-27T12:59:35.955Z,583.92
2022-12-27T13:00:36.329Z,607.91
2022-12-27T13:01:36.810Z,617.09
2022-12-27T13:02:36.683Z,633.96
2022-12-27T13:03:36.179Z,639.27
2022-12-27T13:04:37.503Z,642.07
2022-12-27T13:05:36.623Z,645.59
2022-12-27T13:06:36.959Z,641.26
2022-12-27T13:07:39.673Z,604.97
2022-12-27T13:08:36.605Z,611.63
2022-12-27T13:09:36.814Z,602.19
2022-12-27T13:10:37.095Z,639.53
2022-12-27T13:11:36.493Z,605.14
2022-12-27T13:12:36.872Z,595.46
2022-12-27T13:13:36.973Z,623.53
2022-12-27T13:15:33.534Z,591.63
2022-12-27T13:15:39.747Z,578.82
2022-12-27T13:16:40.082Z,579.07